sensor_id;sensor_type;location;lat;lon;timestamp;P1;durP1;ratioP1;P2;durP2;ratioP2
31760;SDS011;18335;51.486;7.562;2024-03-02T00:00:29;5.43;;;1.75;;
31760;SDS011;18335;51.486;7.562;2024-03-02T00:02:56;4.75;;;2.78;;
31760;SDS011;18335;51.486;7.562;2024-03-02T00:05:23;3.28;;;1.63;;
31760;SDS011;18335;51.486;7.562;2024-03-02T00:07:52;3.13;;;1.52;;
31760;SDS011;18335;51.486;7.562;2024-03-02T00:10:22;4.40;;;1.90;;
31760;SDS011;18335;51.486;7.562;2024-03-02T00:12:54;4.35;;;1.85;;
31760;SDS011;18335;51.486;7.562;2024-03-02T00:15:40;3.67;;;1.75;;
31760;SDS011;18335;51.486;7.562;2024-03-02T00:18:10;4.75;;;1.90;;
31760;SDS011;18335;51.486;7.562;2024-03-02T00:20:38;3.70;;;1.48;;
31760;SDS011;18335;51.486;7.562;2024-03-02T00:23:05;5.88;;;2.13;;
31760;SDS011;18335;51.486;7.562;2024-03-02T00:25:37;3.60;;;1.58;;
31760;SDS011;18335;51.486;7.562;2024-03-02T00:28:10;4.15;;;1.63;;
31760;SDS011;18335;51.486;7.562;2024-03-02T00:30:56;4.63;;;2.50;;
31760;SDS011;18335;51.486;7.562;2024-03-02T00:33:26;5.80;;;1.58;;
31760;SDS011;18335;51.486;7.562;2024-03-02T00:35:54;5.15;;;1.73;;
31760;SDS011;18335;51.486;7.562;2024-03-02T00:38:21;6.93;;;2.05;;
31760;SDS011;18335;51.486;7.562;2024-03-02T00:40:48;6.72;;;1.67;;
31760;SDS011;18335;51.486;7.562;2024-03-02T00:43:35;4.43;;;1.60;;
31760;SDS011;18335;51.486;7.562;2024-03-02T00:46:10;5.07;;;1.80;;
31760;SDS011;18335;51.486;7.562;2024-03-02T00:48:38;4.22;;;1.65;;
31760;SDS011;18335;51.486;7.562;2024-03-02T00:51:05;4.20;;;1.50;;
31760;SDS011;18335;51.486;7.562;2024-03-02T00:53:33;4.07;;;1.48;;
31760;SDS011;18335;51.486;7.562;2024-03-02T00:56:00;4.50;;;2.33;;
31760;SDS011;18335;51.486;7.562;2024-03-02T00:58:27;3.50;;;1.27;;
31760;SDS011;18335;51.486;7.562;2024-03-02T01:00:54;7.05;;;2.55;;
31760;SDS011;18335;51.486;7.562;2024-03-02T01:03:22;3.47;;;1.60;;
31760;SDS011;18335;51.486;7.562;2024-03-02T01:05:49;5.15;;;1.40;;
31760;SDS011;18335;51.486;7.562;2024-03-02T01:08:16;4.78;;;1.77;;
31760;SDS011;18335;51.486;7.562;2024-03-02T01:10:43;6.45;;;1.42;;
31760;SDS011;18335;51.486;7.562;2024-03-02T01:13:10;4.65;;;1.40;;
31760;SDS011;18335;51.486;7.562;2024-03-02T01:15:37;2.17;;;0.95;;
31760;SDS011;18335;51.486;7.562;2024-03-02T01:18:04;4.68;;;1.75;;
31760;SDS011;18335;51.486;7.562;2024-03-02T01:20:32;2.88;;;1.67;;
31760;SDS011;18335;51.486;7.562;2024-03-02T01:22:59;5.10;;;1.33;;
31760;SDS011;18335;51.486;7.562;2024-03-02T01:25:25;4.13;;;1.30;;
31760;SDS011;18335;51.486;7.562;2024-03-02T01:27:52;6.57;;;1.33;;
31760;SDS011;18335;51.486;7.562;2024-03-02T01:30:19;3.05;;;1.20;;
31760;SDS011;18335;51.486;7.562;2024-03-02T01:32:46;3.80;;;1.00;;
31760;SDS011;18335;51.486;7.562;2024-03-02T01:35:13;3.83;;;1.20;;
31760;SDS011;18335;51.486;7.562;2024-03-02T01:37:42;7.65;;;2.33;;
31760;SDS011;18335;51.486;7.562;2024-03-02T01:40:09;4.22;;;1.17;;
31760;SDS011;18335;51.486;7.562;2024-03-02T01:42:37;6.50;;;0.98;;
31760;SDS011;18335;51.486;7.562;2024-03-02T01:45:04;2.78;;;1.10;;
31760;SDS011;18335;51.486;7.562;2024-03-02T01:47:32;2.88;;;1.02;;
31760;SDS011;18335;51.486;7.562;2024-03-02T01:49:59;3.42;;;1.00;;
31760;SDS011;18335;51.486;7.562;2024-03-02T01:52:27;2.85;;;0.98;;
31760;SDS011;18335;51.486;7.562;2024-03-02T01:54:56;2.63;;;1.00;;
31760;SDS011;18335;51.486;7.562;2024-03-02T01:57:23;3.35;;;1.20;;
31760;SDS011;18335;51.486;7.562;2024-03-02T01:59:50;4.80;;;1.55;;
31760;SDS011;18335;51.486;7.562;2024-03-02T02:02:17;2.85;;;0.80;;
31760;SDS011;18335;51.486;7.562;2024-03-02T02:04:44;4.38;;;0.88;;
31760;SDS011;18335;51.486;7.562;2024-03-02T02:07:10;2.72;;;0.80;;
31760;SDS011;18335;51.486;7.562;2024-03-02T02:09:39;1.88;;;0.88;;
31760;SDS011;18335;51.486;7.562;2024-03-02T02:12:07;3.53;;;1.10;;
31760;SDS011;18335;51.486;7.562;2024-03-02T02:14:34;4.35;;;2.00;;
31760;SDS011;18335;51.486;7.562;2024-03-02T02:17:01;2.03;;;1.08;;
31760;SDS011;18335;51.486;7.562;2024-03-02T02:19:28;7.10;;;3.03;;
31760;SDS011;18335;51.486;7.562;2024-03-02T02:21:56;3.55;;;1.08;;
31760;SDS011;18335;51.486;7.562;2024-03-02T02:24:23;4.75;;;1.10;;
31760;SDS011;18335;51.486;7.562;2024-03-02T02:26:50;2.72;;;1.00;;
31760;SDS011;18335;51.486;7.562;2024-03-02T02:29:16;3.75;;;1.20;;
31760;SDS011;18335;51.486;7.562;2024-03-02T02:31:43;4.93;;;1.20;;
31760;SDS011;18335;51.486;7.562;2024-03-02T02:34:10;2.33;;;0.90;;
31760;SDS011;18335;51.486;7.562;2024-03-02T02:36:37;4.07;;;1.20;;
31760;SDS011;18335;51.486;7.562;2024-03-02T02:39:07;3.65;;;0.90;;
31760;SDS011;18335;51.486;7.562;2024-03-02T02:41:37;4.68;;;1.75;;
31760;SDS011;18335;51.486;7.562;2024-03-02T02:44:04;3.50;;;0.80;;
31760;SDS011;18335;51.486;7.562;2024-03-02T02:46:30;2.47;;;1.02;;
31760;SDS011;18335;51.486;7.562;2024-03-02T02:48:57;3.47;;;0.88;;
31760;SDS011;18335;51.486;7.562;2024-03-02T02:51:24;2.78;;;0.98;;
31760;SDS011;18335;51.486;7.562;2024-03-02T02:53:51;3.38;;;1.23;;
31760;SDS011;18335;51.486;7.562;2024-03-02T02:56:19;4.57;;;0.90;;
31760;SDS011;18335;51.486;7.562;2024-03-02T02:58:46;3.50;;;1.13;;
31760;SDS011;18335;51.486;7.562;2024-03-02T03:01:13;2.35;;;0.98;;
31760;SDS011;18335;51.486;7.562;2024-03-02T03:03:39;2.95;;;1.00;;
31760;SDS011;18335;51.486;7.562;2024-03-02T03:06:07;6.68;;;1.27;;
31760;SDS011;18335;51.486;7.562;2024-03-02T03:08:33;4.80;;;1.48;;
31760;SDS011;18335;51.486;7.562;2024-03-02T03:11:00;3.85;;;1.42;;
31760;SDS011;18335;51.486;7.562;2024-03-02T03:13:28;6.18;;;1.02;;
31760;SDS011;18335;51.486;7.562;2024-03-02T03:15:55;2.58;;;1.08;;
31760;SDS011;18335;51.486;7.562;2024-03-02T03:18:21;2.58;;;1.10;;
31760;SDS011;18335;51.486;7.562;2024-03-02T03:20:48;3.95;;;1.02;;
31760;SDS011;18335;51.486;7.562;2024-03-02T03:23:15;2.55;;;0.75;;
31760;SDS011;18335;51.486;7.562;2024-03-02T03:25:42;5.35;;;1.00;;
31760;SDS011;18335;51.486;7.562;2024-03-02T03:28:09;3.13;;;1.00;;
31760;SDS011;18335;51.486;7.562;2024-03-02T03:30:37;4.45;;;1.25;;
31760;SDS011;18335;51.486;7.562;2024-03-02T03:33:04;2.40;;;1.10;;
31760;SDS011;18335;51.486;7.562;2024-03-02T03:35:31;2.45;;;0.95;;
31760;SDS011;18335;51.486;7.562;2024-03-02T03:37:58;4.00;;;1.23;;
31760;SDS011;18335;51.486;7.562;2024-03-02T03:40:25;2.90;;;1.00;;
31760;SDS011;18335;51.486;7.562;2024-03-02T03:42:51;5.38;;;1.27;;
31760;SDS011;18335;51.486;7.562;2024-03-02T03:45:18;3.38;;;1.08;;
31760;SDS011;18335;51.486;7.562;2024-03-02T03:47:46;4.93;;;0.90;;
31760;SDS011;18335;51.486;7.562;2024-03-02T03:50:13;8.38;;;1.27;;
31760;SDS011;18335;51.486;7.562;2024-03-02T03:52:40;2.08;;;0.90;;
31760;SDS011;18335;51.486;7.562;2024-03-02T03:55:07;5.03;;;1.00;;
31760;SDS011;18335;51.486;7.562;2024-03-02T03:57:34;1.92;;;0.90;;
31760;SDS011;18335;51.486;7.562;2024-03-02T04:00:01;2.85;;;1.00;;
31760;SDS011;18335;51.486;7.562;2024-03-02T04:02:37;3.17;;;1.35;;
31760;SDS011;18335;51.486;7.562;2024-03-02T04:05:06;4.72;;;1.13;;
31760;SDS011;18335;51.486;7.562;2024-03-02T04:07:35;4.28;;;1.38;;
31760;SDS011;18335;51.486;7.562;2024-03-02T04:10:09;5.28;;;1.45;;
31760;SDS011;18335;51.486;7.562;2024-03-02T04:12:37;2.45;;;0.95;;
31760;SDS011;18335;51.486;7.562;2024-03-02T04:15:04;5.30;;;1.33;;
31760;SDS011;18335;51.486;7.562;2024-03-02T04:17:32;4.18;;;1.48;;
31760;SDS011;18335;51.486;7.562;2024-03-02T04:20:01;4.53;;;1.45;;
31760;SDS011;18335;51.486;7.562;2024-03-02T04:22:32;7.53;;;1.90;;
31760;SDS011;18335;51.486;7.562;2024-03-02T04:24:59;5.45;;;2.22;;
31760;SDS011;18335;51.486;7.562;2024-03-02T04:27:25;4.68;;;1.35;;
31760;SDS011;18335;51.486;7.562;2024-03-02T04:29:52;3.28;;;1.33;;
31760;SDS011;18335;51.486;7.562;2024-03-02T04:32:19;4.90;;;1.50;;
31760;SDS011;18335;51.486;7.562;2024-03-02T04:34:46;3.83;;;1.30;;
31760;SDS011;18335;51.486;7.562;2024-03-02T04:37:12;3.95;;;1.67;;
31760;SDS011;18335;51.486;7.562;2024-03-02T04:39:41;4.30;;;2.28;;
31760;SDS011;18335;51.486;7.562;2024-03-02T04:42:07;3.08;;;1.30;;
31760;SDS011;18335;51.486;7.562;2024-03-02T04:44:34;3.67;;;1.60;;
31760;SDS011;18335;51.486;7.562;2024-03-02T04:47:02;4.57;;;1.80;;
31760;SDS011;18335;51.486;7.562;2024-03-02T04:49:29;7.82;;;2.55;;
31760;SDS011;18335;51.486;7.562;2024-03-02T04:51:56;4.55;;;1.30;;
31760;SDS011;18335;51.486;7.562;2024-03-02T04:54:23;4.65;;;1.40;;
31760;SDS011;18335;51.486;7.562;2024-03-02T04:56:51;5.45;;;1.70;;
31760;SDS011;18335;51.486;7.562;2024-03-02T04:59:18;5.75;;;1.88;;
31760;SDS011;18335;51.486;7.562;2024-03-02T05:01:45;6.28;;;1.70;;
31760;SDS011;18335;51.486;7.562;2024-03-02T05:04:12;3.90;;;1.30;;
31760;SDS011;18335;51.486;7.562;2024-03-02T05:06:39;5.40;;;2.35;;
31760;SDS011;18335;51.486;7.562;2024-03-02T05:09:06;3.50;;;1.42;;
31760;SDS011;18335;51.486;7.562;2024-03-02T05:11:33;5.00;;;1.45;;
31760;SDS011;18335;51.486;7.562;2024-03-02T05:14:36;3.55;;;1.30;;
31760;SDS011;18335;51.486;7.562;2024-03-02T05:17:03;3.15;;;1.30;;
31760;SDS011;18335;51.486;7.562;2024-03-02T05:19:30;6.03;;;1.55;;
31760;SDS011;18335;51.486;7.562;2024-03-02T05:21:57;4.07;;;1.55;;
31760;SDS011;18335;51.486;7.562;2024-03-02T05:24:23;5.65;;;1.73;;
31760;SDS011;18335;51.486;7.562;2024-03-02T05:26:52;5.22;;;1.92;;
31760;SDS011;18335;51.486;7.562;2024-03-02T05:29:19;4.05;;;1.65;;
31760;SDS011;18335;51.486;7.562;2024-03-02T05:31:47;3.42;;;1.30;;
31760;SDS011;18335;51.486;7.562;2024-03-02T05:34:13;3.85;;;1.60;;
31760;SDS011;18335;51.486;7.562;2024-03-02T05:36:40;5.85;;;1.40;;
31760;SDS011;18335;51.486;7.562;2024-03-02T05:39:07;5.15;;;1.52;;
31760;SDS011;18335;51.486;7.562;2024-03-02T05:41:35;4.03;;;1.63;;
31760;SDS011;18335;51.486;7.562;2024-03-02T05:44:03;4.40;;;1.42;;
31760;SDS011;18335;51.486;7.562;2024-03-02T05:46:30;3.60;;;1.17;;
31760;SDS011;18335;51.486;7.562;2024-03-02T05:48:58;4.07;;;1.95;;
31760;SDS011;18335;51.486;7.562;2024-03-02T05:51:25;5.65;;;1.90;;
31760;SDS011;18335;51.486;7.562;2024-03-02T05:53:52;4.53;;;1.73;;
31760;SDS011;18335;51.486;7.562;2024-03-02T05:56:18;6.35;;;1.60;;
31760;SDS011;18335;51.486;7.562;2024-03-02T05:58:45;7.03;;;2.15;;
31760;SDS011;18335;51.486;7.562;2024-03-02T06:01:23;5.07;;;1.40;;
31760;SDS011;18335;51.486;7.562;2024-03-02T06:03:53;4.20;;;1.83;;
31760;SDS011;18335;51.486;7.562;2024-03-02T06:06:22;4.25;;;1.67;;
31760;SDS011;18335;51.486;7.562;2024-03-02T06:08:49;5.35;;;1.60;;
31760;SDS011;18335;51.486;7.562;2024-03-02T06:11:16;3.83;;;2.05;;
31760;SDS011;18335;51.486;7.562;2024-03-02T06:13:43;4.10;;;1.77;;
31760;SDS011;18335;51.486;7.562;2024-03-02T06:16:10;4.25;;;1.70;;
31760;SDS011;18335;51.486;7.562;2024-03-02T06:18:37;4.13;;;1.70;;
31760;SDS011;18335;51.486;7.562;2024-03-02T06:21:04;7.10;;;2.00;;
31760;SDS011;18335;51.486;7.562;2024-03-02T06:23:32;4.20;;;1.65;;
31760;SDS011;18335;51.486;7.562;2024-03-02T06:25:58;5.07;;;1.80;;
31760;SDS011;18335;51.486;7.562;2024-03-02T06:28:25;7.53;;;2.92;;
31760;SDS011;18335;51.486;7.562;2024-03-02T06:30:52;3.85;;;1.55;;
31760;SDS011;18335;51.486;7.562;2024-03-02T06:33:19;5.82;;;2.47;;
31760;SDS011;18335;51.486;7.562;2024-03-02T06:35:46;4.75;;;1.85;;
31760;SDS011;18335;51.486;7.562;2024-03-02T06:38:14;6.93;;;1.95;;
31760;SDS011;18335;51.486;7.562;2024-03-02T06:40:42;6.63;;;3.47;;
31760;SDS011;18335;51.486;7.562;2024-03-02T06:43:09;7.00;;;2.00;;
31760;SDS011;18335;51.486;7.562;2024-03-02T06:45:36;4.90;;;1.63;;
31760;SDS011;18335;51.486;7.562;2024-03-02T06:48:03;6.90;;;2.25;;
31760;SDS011;18335;51.486;7.562;2024-03-02T06:50:30;4.20;;;1.83;;
31760;SDS011;18335;51.486;7.562;2024-03-02T06:52:57;7.50;;;2.20;;
31760;SDS011;18335;51.486;7.562;2024-03-02T06:55:23;4.50;;;1.85;;
31760;SDS011;18335;51.486;7.562;2024-03-02T06:57:52;5.22;;;2.03;;
31760;SDS011;18335;51.486;7.562;2024-03-02T07:00:19;6.75;;;2.10;;
31760;SDS011;18335;51.486;7.562;2024-03-02T07:02:46;8.10;;;2.10;;
31760;SDS011;18335;51.486;7.562;2024-03-02T07:05:13;5.03;;;1.85;;
31760;SDS011;18335;51.486;7.562;2024-03-02T07:07:39;7.10;;;1.98;;
31760;SDS011;18335;51.486;7.562;2024-03-02T07:10:06;4.80;;;1.77;;
31760;SDS011;18335;51.486;7.562;2024-03-02T07:12:34;9.35;;;2.05;;
31760;SDS011;18335;51.486;7.562;2024-03-02T07:15:02;7.00;;;1.90;;
31760;SDS011;18335;51.486;7.562;2024-03-02T07:17:54;9.57;;;3.13;;
31760;SDS011;18335;51.486;7.562;2024-03-02T07:20:21;5.18;;;2.20;;
31760;SDS011;18335;51.486;7.562;2024-03-02T07:22:47;4.78;;;2.00;;
31760;SDS011;18335;51.486;7.562;2024-03-02T07:25:14;13.45;;;2.72;;
31760;SDS011;18335;51.486;7.562;2024-03-02T07:27:41;8.10;;;2.22;;
31760;SDS011;18335;51.486;7.562;2024-03-02T07:30:13;5.65;;;2.03;;
31760;SDS011;18335;51.486;7.562;2024-03-02T07:32:41;7.53;;;2.10;;
31760;SDS011;18335;51.486;7.562;2024-03-02T07:35:11;6.65;;;2.22;;
31760;SDS011;18335;51.486;7.562;2024-03-02T07:37:38;14.13;;;2.33;;
31760;SDS011;18335;51.486;7.562;2024-03-02T07:40:05;12.55;;;2.28;;
31760;SDS011;18335;51.486;7.562;2024-03-02T07:42:36;11.80;;;2.88;;
31760;SDS011;18335;51.486;7.562;2024-03-02T07:45:04;7.18;;;2.42;;
31760;SDS011;18335;51.486;7.562;2024-03-02T07:47:33;13.48;;;2.90;;
31760;SDS011;18335;51.486;7.562;2024-03-02T07:49:59;12.73;;;2.83;;
31760;SDS011;18335;51.486;7.562;2024-03-02T07:52:26;13.38;;;3.50;;
31760;SDS011;18335;51.486;7.562;2024-03-02T07:54:53;7.30;;;2.80;;
31760;SDS011;18335;51.486;7.562;2024-03-02T07:57:20;10.38;;;3.10;;
31760;SDS011;18335;51.486;7.562;2024-03-02T07:59:47;9.05;;;3.55;;
31760;SDS011;18335;51.486;7.562;2024-03-02T08:02:14;5.95;;;2.72;;
31760;SDS011;18335;51.486;7.562;2024-03-02T08:04:42;7.50;;;2.85;;
31760;SDS011;18335;51.486;7.562;2024-03-02T08:07:11;6.97;;;2.70;;
31760;SDS011;18335;51.486;7.562;2024-03-02T08:09:37;13.05;;;3.25;;
31760;SDS011;18335;51.486;7.562;2024-03-02T08:12:04;9.65;;;3.08;;
31760;SDS011;18335;51.486;7.562;2024-03-02T08:14:31;6.68;;;2.60;;
31760;SDS011;18335;51.486;7.562;2024-03-02T08:16:58;10.10;;;3.00;;
31760;SDS011;18335;51.486;7.562;2024-03-02T08:19:26;8.15;;;3.80;;
31760;SDS011;18335;51.486;7.562;2024-03-02T08:21:54;10.98;;;3.10;;
31760;SDS011;18335;51.486;7.562;2024-03-02T08:24:21;13.32;;;3.70;;
31760;SDS011;18335;51.486;7.562;2024-03-02T08:26:48;9.68;;;2.80;;
31760;SDS011;18335;51.486;7.562;2024-03-02T08:29:15;15.10;;;3.40;;
31760;SDS011;18335;51.486;7.562;2024-03-02T08:31:41;9.43;;;3.30;;
31760;SDS011;18335;51.486;7.562;2024-03-02T08:34:08;10.55;;;3.13;;
31760;SDS011;18335;51.486;7.562;2024-03-02T08:36:35;9.27;;;3.30;;
31760;SDS011;18335;51.486;7.562;2024-03-02T08:39:03;10.77;;;3.13;;
31760;SDS011;18335;51.486;7.562;2024-03-02T08:41:32;12.25;;;3.25;;
31760;SDS011;18335;51.486;7.562;2024-03-02T08:43:59;10.18;;;3.55;;
31760;SDS011;18335;51.486;7.562;2024-03-02T08:46:26;11.02;;;3.50;;
31760;SDS011;18335;51.486;7.562;2024-03-02T08:48:52;7.20;;;2.72;;
31760;SDS011;18335;51.486;7.562;2024-03-02T08:51:19;6.68;;;2.90;;
31760;SDS011;18335;51.486;7.562;2024-03-02T08:53:46;5.80;;;2.47;;
31760;SDS011;18335;51.486;7.562;2024-03-02T08:56:14;9.70;;;3.25;;
31760;SDS011;18335;51.486;7.562;2024-03-02T08:58:41;9.45;;;3.17;;
31760;SDS011;18335;51.486;7.562;2024-03-02T09:01:08;6.88;;;2.65;;
31760;SDS011;18335;51.486;7.562;2024-03-02T09:03:35;6.68;;;2.72;;
31760;SDS011;18335;51.486;7.562;2024-03-02T09:06:02;11.38;;;2.88;;
31760;SDS011;18335;51.486;7.562;2024-03-02T09:08:29;7.50;;;2.53;;
31760;SDS011;18335;51.486;7.562;2024-03-02T09:10:56;7.07;;;2.88;;
31760;SDS011;18335;51.486;7.562;2024-03-02T09:13:24;5.78;;;2.53;;
31760;SDS011;18335;51.486;7.562;2024-03-02T09:15:51;8.13;;;3.78;;
31760;SDS011;18335;51.486;7.562;2024-03-02T09:18:18;7.63;;;2.42;;
31760;SDS011;18335;51.486;7.562;2024-03-02T09:20:44;9.52;;;2.67;;
31760;SDS011;18335;51.486;7.562;2024-03-02T09:23:12;6.20;;;2.42;;
31760;SDS011;18335;51.486;7.562;2024-03-02T09:25:39;8.88;;;2.55;;
31760;SDS011;18335;51.486;7.562;2024-03-02T09:28:06;3.70;;;1.80;;
31760;SDS011;18335;51.486;7.562;2024-03-02T09:30:34;5.55;;;1.92;;
31760;SDS011;18335;51.486;7.562;2024-03-02T09:33:01;8.18;;;2.28;;
31760;SDS011;18335;51.486;7.562;2024-03-02T09:35:28;5.80;;;1.50;;
31760;SDS011;18335;51.486;7.562;2024-03-02T09:37:55;5.03;;;2.90;;
31760;SDS011;18335;51.486;7.562;2024-03-02T09:40:22;3.35;;;1.30;;
31760;SDS011;18335;51.486;7.562;2024-03-02T09:42:49;5.15;;;1.85;;
31760;SDS011;18335;51.486;7.562;2024-03-02T09:45:19;4.50;;;1.20;;
31760;SDS011;18335;51.486;7.562;2024-03-02T09:47:51;3.17;;;1.35;;
31760;SDS011;18335;51.486;7.562;2024-03-02T09:50:18;4.00;;;1.20;;
31760;SDS011;18335;51.486;7.562;2024-03-02T09:52:46;4.07;;;1.30;;
31760;SDS011;18335;51.486;7.562;2024-03-02T09:55:15;4.38;;;1.13;;
31760;SDS011;18335;51.486;7.562;2024-03-02T09:57:42;2.47;;;1.05;;
31760;SDS011;18335;51.486;7.562;2024-03-02T10:00:09;2.80;;;1.17;;
31760;SDS011;18335;51.486;7.562;2024-03-02T10:02:39;2.88;;;1.10;;
31760;SDS011;18335;51.486;7.562;2024-03-02T10:05:08;2.92;;;0.90;;
31760;SDS011;18335;51.486;7.562;2024-03-02T10:07:35;1.92;;;0.95;;
31760;SDS011;18335;51.486;7.562;2024-03-02T10:10:11;5.22;;;1.20;;
31760;SDS011;18335;51.486;7.562;2024-03-02T10:12:39;4.00;;;0.80;;
31760;SDS011;18335;51.486;7.562;2024-03-02T10:15:06;2.88;;;0.88;;
31760;SDS011;18335;51.486;7.562;2024-03-02T10:17:34;2.70;;;0.95;;
31760;SDS011;18335;51.486;7.562;2024-03-02T10:22:51;2.00;;;0.70;;
31760;SDS011;18335;51.486;7.562;2024-03-02T10:25:31;3.42;;;0.90;;
31760;SDS011;18335;51.486;7.562;2024-03-02T10:27:58;1.90;;;0.85;;
31760;SDS011;18335;51.486;7.562;2024-03-02T10:30:26;2.45;;;0.75;;
31760;SDS011;18335;51.486;7.562;2024-03-02T10:32:53;1.95;;;0.60;;
31760;SDS011;18335;51.486;7.562;2024-03-02T10:35:21;1.77;;;0.70;;
31760;SDS011;18335;51.486;7.562;2024-03-02T10:37:50;1.17;;;0.60;;
31760;SDS011;18335;51.486;7.562;2024-03-02T10:40:17;2.55;;;1.17;;
31760;SDS011;18335;51.486;7.562;2024-03-02T10:42:44;3.15;;;0.70;;
31760;SDS011;18335;51.486;7.562;2024-03-02T10:45:11;2.08;;;0.73;;
31760;SDS011;18335;51.486;7.562;2024-03-02T10:47:41;3.97;;;0.90;;
31760;SDS011;18335;51.486;7.562;2024-03-02T10:50:09;1.25;;;0.57;;
31760;SDS011;18335;51.486;7.562;2024-03-02T10:52:36;2.17;;;0.90;;
31760;SDS011;18335;51.486;7.562;2024-03-02T10:55:06;1.13;;;0.55;;
31760;SDS011;18335;51.486;7.562;2024-03-02T10:57:37;6.38;;;2.08;;
31760;SDS011;18335;51.486;7.562;2024-03-02T11:00:11;1.48;;;0.85;;
31760;SDS011;18335;51.486;7.562;2024-03-02T11:02:41;2.80;;;0.98;;
31760;SDS011;18335;51.486;7.562;2024-03-02T11:05:13;4.95;;;0.90;;
31760;SDS011;18335;51.486;7.562;2024-03-02T11:07:49;1.90;;;1.00;;
31760;SDS011;18335;51.486;7.562;2024-03-02T11:10:20;3.20;;;0.90;;
31760;SDS011;18335;51.486;7.562;2024-03-02T11:12:48;3.20;;;0.90;;
31760;SDS011;18335;51.486;7.562;2024-03-02T11:15:22;2.55;;;1.00;;
31760;SDS011;18335;51.486;7.562;2024-03-02T11:17:51;0.82;;;0.45;;
31760;SDS011;18335;51.486;7.562;2024-03-02T11:20:19;4.30;;;1.00;;
31760;SDS011;18335;51.486;7.562;2024-03-02T11:22:47;2.45;;;1.00;;
31760;SDS011;18335;51.486;7.562;2024-03-02T11:25:25;3.75;;;0.70;;
31760;SDS011;18335;51.486;7.562;2024-03-02T11:27:59;2.33;;;0.88;;
31760;SDS011;18335;51.486;7.562;2024-03-02T11:33:25;3.92;;;0.80;;
31760;SDS011;18335;51.486;7.562;2024-03-02T11:35:56;1.70;;;0.73;;
31760;SDS011;18335;51.486;7.562;2024-03-02T11:38:27;1.35;;;0.65;;
31760;SDS011;18335;51.486;7.562;2024-03-02T11:40:56;2.38;;;0.65;;
31760;SDS011;18335;51.486;7.562;2024-03-02T11:43:22;1.30;;;0.50;;
31760;SDS011;18335;51.486;7.562;2024-03-02T11:45:56;3.00;;;0.75;;
31760;SDS011;18335;51.486;7.562;2024-03-02T11:48:23;2.78;;;0.70;;
31760;SDS011;18335;51.486;7.562;2024-03-02T11:50:51;1.95;;;0.85;;
31760;SDS011;18335;51.486;7.562;2024-03-02T11:53:20;5.80;;;1.45;;
31760;SDS011;18335;51.486;7.562;2024-03-02T11:55:47;2.65;;;1.13;;
31760;SDS011;18335;51.486;7.562;2024-03-02T11:58:16;4.97;;;0.60;;
31760;SDS011;18335;51.486;7.562;2024-03-02T12:00:45;1.25;;;0.60;;
31760;SDS011;18335;51.486;7.562;2024-03-02T12:03:13;2.85;;;0.82;;
31760;SDS011;18335;51.486;7.562;2024-03-02T12:05:40;3.38;;;1.00;;
31760;SDS011;18335;51.486;7.562;2024-03-02T12:08:07;1.38;;;0.73;;
31760;SDS011;18335;51.486;7.562;2024-03-02T12:10:34;1.75;;;0.73;;
31760;SDS011;18335;51.486;7.562;2024-03-02T12:13:04;1.67;;;0.60;;
31760;SDS011;18335;51.486;7.562;2024-03-02T12:15:34;1.55;;;0.63;;
31760;SDS011;18335;51.486;7.562;2024-03-02T12:18:02;3.80;;;1.17;;
31760;SDS011;18335;51.486;7.562;2024-03-02T12:20:31;1.25;;;0.60;;
31760;SDS011;18335;51.486;7.562;2024-03-02T12:22:59;1.30;;;0.55;;
31760;SDS011;18335;51.486;7.562;2024-03-02T12:25:27;2.50;;;0.80;;
31760;SDS011;18335;51.486;7.562;2024-03-02T12:27:56;0.88;;;0.57;;
31760;SDS011;18335;51.486;7.562;2024-03-02T12:30:26;1.83;;;0.65;;
31760;SDS011;18335;51.486;7.562;2024-03-02T12:32:59;2.35;;;0.90;;
31760;SDS011;18335;51.486;7.562;2024-03-02T12:35:26;1.67;;;0.57;;
31760;SDS011;18335;51.486;7.562;2024-03-02T12:37:53;2.92;;;0.98;;
31760;SDS011;18335;51.486;7.562;2024-03-02T12:40:21;1.45;;;0.70;;
31760;SDS011;18335;51.486;7.562;2024-03-02T12:42:48;3.90;;;1.00;;
31760;SDS011;18335;51.486;7.562;2024-03-02T12:45:16;1.60;;;0.70;;
31760;SDS011;18335;51.486;7.562;2024-03-02T12:47:48;2.05;;;0.68;;
31760;SDS011;18335;51.486;7.562;2024-03-02T12:50:18;3.05;;;0.90;;
31760;SDS011;18335;51.486;7.562;2024-03-02T12:52:50;2.47;;;0.88;;
31760;SDS011;18335;51.486;7.562;2024-03-02T12:55:18;2.10;;;0.70;;
31760;SDS011;18335;51.486;7.562;2024-03-02T12:57:46;1.95;;;0.85;;
31760;SDS011;18335;51.486;7.562;2024-03-02T13:00:13;1.38;;;0.65;;
31760;SDS011;18335;51.486;7.562;2024-03-02T13:02:41;2.20;;;0.80;;
31760;SDS011;18335;51.486;7.562;2024-03-02T13:05:08;3.10;;;0.90;;
31760;SDS011;18335;51.486;7.562;2024-03-02T13:07:37;4.28;;;0.70;;
31760;SDS011;18335;51.486;7.562;2024-03-02T13:10:04;2.33;;;0.88;;
31760;SDS011;18335;51.486;7.562;2024-03-02T13:12:32;4.20;;;1.13;;
31760;SDS011;18335;51.486;7.562;2024-03-02T13:14:59;1.90;;;0.50;;
31760;SDS011;18335;51.486;7.562;2024-03-02T13:17:27;3.00;;;0.80;;
31760;SDS011;18335;51.486;7.562;2024-03-02T13:19:54;2.33;;;0.77;;
31760;SDS011;18335;51.486;7.562;2024-03-02T13:22:22;1.77;;;0.75;;
31760;SDS011;18335;51.486;7.562;2024-03-02T13:24:50;3.88;;;1.10;;
31760;SDS011;18335;51.486;7.562;2024-03-02T13:27:18;1.50;;;0.60;;
31760;SDS011;18335;51.486;7.562;2024-03-02T13:29:46;1.45;;;0.80;;
31760;SDS011;18335;51.486;7.562;2024-03-02T13:32:13;2.75;;;0.70;;
31760;SDS011;18335;51.486;7.562;2024-03-02T13:34:40;3.17;;;0.68;;
31760;SDS011;18335;51.486;7.562;2024-03-02T13:37:07;2.38;;;0.77;;
31760;SDS011;18335;51.486;7.562;2024-03-02T13:39:34;5.40;;;0.70;;
31760;SDS011;18335;51.486;7.562;2024-03-02T13:42:07;1.45;;;0.63;;
31760;SDS011;18335;51.486;7.562;2024-03-02T13:44:34;2.15;;;0.88;;
31760;SDS011;18335;51.486;7.562;2024-03-02T13:47:02;0.93;;;0.45;;
31760;SDS011;18335;51.486;7.562;2024-03-02T13:49:29;1.15;;;0.60;;
31760;SDS011;18335;51.486;7.562;2024-03-02T13:52:01;2.50;;;0.70;;
31760;SDS011;18335;51.486;7.562;2024-03-02T13:54:36;3.35;;;0.80;;
31760;SDS011;18335;51.486;7.562;2024-03-02T13:57:03;4.35;;;1.42;;
31760;SDS011;18335;51.486;7.562;2024-03-02T13:59:32;2.38;;;0.88;;
31760;SDS011;18335;51.486;7.562;2024-03-02T14:01:58;2.17;;;0.90;;
31760;SDS011;18335;51.486;7.562;2024-03-02T14:04:25;2.08;;;0.70;;
31760;SDS011;18335;51.486;7.562;2024-03-02T14:06:52;3.22;;;1.20;;
31760;SDS011;18335;51.486;7.562;2024-03-02T14:09:19;1.83;;;0.70;;
31760;SDS011;18335;51.486;7.562;2024-03-02T14:11:46;2.75;;;0.73;;
31760;SDS011;18335;51.486;7.562;2024-03-02T14:14:14;2.80;;;0.60;;
31760;SDS011;18335;51.486;7.562;2024-03-02T14:16:42;2.97;;;0.90;;
31760;SDS011;18335;51.486;7.562;2024-03-02T14:19:09;2.00;;;0.98;;
31760;SDS011;18335;51.486;7.562;2024-03-02T14:21:36;7.47;;;1.20;;
31760;SDS011;18335;51.486;7.562;2024-03-02T14:24:03;3.92;;;1.10;;
31760;SDS011;18335;51.486;7.562;2024-03-02T14:26:32;2.80;;;0.85;;
31760;SDS011;18335;51.486;7.562;2024-03-02T14:28:58;1.85;;;0.80;;
31760;SDS011;18335;51.486;7.562;2024-03-02T14:31:26;9.52;;;1.25;;
31760;SDS011;18335;51.486;7.562;2024-03-02T14:33:54;2.83;;;0.75;;
31760;SDS011;18335;51.486;7.562;2024-03-02T14:36:21;3.88;;;0.88;;
31760;SDS011;18335;51.486;7.562;2024-03-02T14:38:48;5.60;;;1.35;;
31760;SDS011;18335;51.486;7.562;2024-03-02T14:41:15;4.72;;;1.02;;
31760;SDS011;18335;51.486;7.562;2024-03-02T14:43:41;4.43;;;1.10;;
31760;SDS011;18335;51.486;7.562;2024-03-02T14:46:08;3.22;;;1.20;;
31760;SDS011;18335;51.486;7.562;2024-03-02T14:48:36;4.18;;;0.82;;
31760;SDS011;18335;51.486;7.562;2024-03-02T14:51:04;4.55;;;1.20;;
31760;SDS011;18335;51.486;7.562;2024-03-02T14:53:31;2.67;;;1.17;;
31760;SDS011;18335;51.486;7.562;2024-03-02T14:55:58;3.70;;;1.05;;
31760;SDS011;18335;51.486;7.562;2024-03-02T14:58:25;2.85;;;1.15;;